Time,TemperatureF,DewpointF,PressureIn,WindDirection,WindDirectionDegrees,WindSpeedMPH,WindSpeedGustMPH,Humidity,HourlyPrecipIn,Conditions,Clouds,dailyrainin,SoftwareType,DateUTC
2013-04-01 00:05:00,70.2,69.0,29.81,East,90,7.3,-999.0,96,-99.99,,,0.00,Acu-Link.com,2013-04-01 05:05:00,
2013-04-01 00:20:00,70.2,69.0,29.82,East,90,5.8,-999.0,96,-99.99,,,0.00,Acu-Link.com,2013-04-01 05:20:00,
2013-04-01 00:35:00,70.0,69.1,29.81,SE,135,5.3,-999.0,97,-99.99,,,0.00,Acu-Link.com,2013-04-01 05:35:00,
2013-04-01 00:50:00,70.0,69.1,29.82,SSE,157,4.2,-999.0,97,-99.99,,,0.00,Acu-Link.com,2013-04-01 05:50:00,
2013-04-01 01:05:00,70.0,69.1,29.83,East,90,7.3,-999.0,97,-99.99,,,0.00,Acu-Link.com,2013-04-01 06:05:00,
2013-04-01 01:20:00,70.0,69.1,29.83,NE,45,3.7,-999.0,97,-99.99,,,0.00,Acu-Link.com,2013-04-01 06:20:00,
2013-04-01 01:35:00,69.8,68.9,29.82,South,180,3.2,-999.0,97,-99.99,,,0.00,Acu-Link.com,2013-04-01 06:35:00,
2013-04-01 01:50:00,69.4,68.5,29.81,East,90,2.7,-999.0,97,-99.99,,,0.00,Acu-Link.com,2013-04-01 06:50:00,
2013-04-01 02:05:00,69.3,68.7,29.81,SE,135,4.2,-999.0,98,-99.99,,,0.00,Acu-Link.com,2013-04-01 07:05:00,
2013-04-01 02:21:00,69.1,68.5,29.84,East,90,2.7,-999.0,98,-99.99,,,0.00,Acu-Link.com,2013-04-01 07:21:00,
2013-04-01 02:36:00,68.9,68.6,29.83,East,90,4.7,-999.0,99,-99.99,,,0.00,Acu-Link.com,2013-04-01 07:36:00,
2013-04-01 02:51:00,68.9,68.6,29.82,East,90,4.7,-999.0,99,-99.99,,,0.00,Acu-Link.com,2013-04-01 07:51:00,
2013-04-01 03:07:00,68.9,68.6,29.82,SE,135,1.7,-999.0,99,-99.99,,,0.00,Acu-Link.com,2013-04-01 08:07:00,
2013-04-01 03:37:00,68.7,68.4,29.81,ESE,112,2.2,-999.0,99,-99.99,,,0.00,Acu-Link.com,2013-04-01 08:37:00,
2013-04-01 03:52:00,68.5,68.2,29.84,ESE,112,2.2,-999.0,99,-99.99,,,0.00,Acu-Link.com,2013-04-01 08:52:00,
2013-04-01 04:07:00,68.4,68.1,29.83,East,90,0.0,-999.0,99,-99.99,,,0.00,Acu-Link.com,2013-04-01 09:07:00,
2013-04-01 04:23:00,68.2,67.9,29.82,ESE,112,1.7,-999.0,99,-99.99,,,0.00,Acu-Link.com,2013-04-01 09:23:00,
2013-04-01 04:38:00,68.0,67.7,29.82,East,90,0.0,-999.0,99,-99.99,,,0.00,Acu-Link.com,2013-04-01 09:38:00,
2013-04-01 04:53:00,67.5,67.2,29.83,South,180,0.0,-999.0,99,-99.99,,,0.00,Acu-Link.com,2013-04-01 09:53:00,
2013-04-01 05:08:00,67.6,67.3,29.85,East,90,0.0,-999.0,99,-99.99,,,0.00,Acu-Link.com,2013-04-01 10:08:00,
2013-04-01 05:38:00,66.7,66.4,29.83,ESE,112,0.0,-999.0,99,-99.99,,,0.00,Acu-Link.com,2013-04-01 10:38:00,
2013-04-01 05:53:00,66.4,66.1,29.83,East,90,0.0,-999.0,99,-99.99,,,0.00,Acu-Link.com,2013-04-01 10:53:00,
2013-04-01 06:08:00,66.0,65.7,29.84,East,90,0.0,-999.0,99,-99.99,,,0.00,Acu-Link.com,2013-04-01 11:08:00,
2013-04-01 06:24:00,65.5,65.2,29.84,ENE,67,0.0,-999.0,99,-99.99,,,0.00,Acu-Link.com,2013-04-01 11:24:00,
2013-04-01 06:39:00,65.1,64.8,29.87,West,270,0.0,-999.0,99,-99.99,,,0.00,Acu-Link.com,2013-04-01 11:39:00,
2013-04-01 06:54:00,64.6,64.3,29.87,South,180,0.0,-999.0,99,-99.99,,,0.00,Acu-Link.com,2013-04-01 11:54:00,
2013-04-01 07:09:00,64.4,64.1,29.86,SW,225,0.0,-999.0,99,-99.99,,,0.00,Acu-Link.com,2013-04-01 12:09:00,
2013-04-01 07:24:00,64.4,64.1,29.86,NNE,22,0.0,-999.0,99,-99.99,,,0.00,Acu-Link.com,2013-04-01 12:24:00,
2013-04-01 07:39:00,64.9,64.6,29.87,NNE,22,0.0,-999.0,99,-99.99,,,0.00,Acu-Link.com,2013-04-01 12:39:00,
2013-04-01 07:54:00,65.8,65.5,29.87,NE,45,0.0,-999.0,99,-99.99,,,0.00,Acu-Link.com,2013-04-01 12:54:00,
2013-04-01 08:09:00,66.6,66.3,29.87,NW,315,0.0,-999.0,99,-99.99,,,0.00,Acu-Link.com,2013-04-01 13:09:00,
2013-04-01 08:24:00,67.8,67.5,29.88,NNW,337,0.0,-999.0,99,-99.99,,,0.00,Acu-Link.com,2013-04-01 13:24:00,
2013-04-01 08:39:00,69.1,68.8,29.89,NE,45,0.0,-999.0,99,-99.99,,,0.00,Acu-Link.com,2013-04-01 13:39:00,
2013-04-01 08:55:00,69.6,69.3,29.89,NNE,22,2.2,-999.0,99,-99.99,,,0.00,Acu-Link.com,2013-04-01 13:55:00,
2013-04-01 09:10:00,69.8,69.5,29.89,NNE,22,0.0,-999.0,99,-99.99,,,0.00,Acu-Link.com,2013-04-01 14:10:00,
2013-04-01 09:25:00,70.5,70.2,29.89,NE,45,0.0,-999.0,99,-99.99,,,0.00,Acu-Link.com,2013-04-01 14:25:00,
2013-04-01 09:40:00,70.9,70.6,29.90,NE,45,2.2,-999.0,99,-99.99,,,0.00,Acu-Link.com,2013-04-01 14:40:00,
2013-04-01 09:55:00,71.2,70.0,29.90,NNE,22,1.1,-999.0,96,-99.99,,,0.00,Acu-Link.com,2013-04-01 14:55:00,
2013-04-01 10:10:00,73.2,71.0,29.89,NE,45,2.2,-999.0,93,-99.99,,,0.00,Acu-Link.com,2013-04-01 15:10:00,
2013-04-01 10:26:00,74.3,71.2,29.90,NNE,22,3.2,-999.0,90,-99.99,,,0.00,Acu-Link.com,2013-04-01 15:26:00,
2013-04-01 10:56:00,75.4,71.3,29.90,NE,45,3.7,-999.0,87,-99.99,,,0.00,Acu-Link.com,2013-04-01 15:56:00,
2013-04-01 11:11:00,75.6,71.1,29.90,ENE,67,3.7,-999.0,86,-99.99,,,0.00,Acu-Link.com,2013-04-01 16:11:00,
2013-04-01 11:56:00,75.9,70.7,29.89,ESE,112,6.8,-999.0,84,-99.99,,,0.00,Acu-Link.com,2013-04-01 16:56:00,
2013-04-01 12:26:00,76.3,70.4,29.90,NNE,22,4.2,-999.0,82,-99.99,,,0.00,Acu-Link.com,2013-04-01 17:26:00,
2013-04-01 12:42:00,77.0,70.3,29.90,ENE,67,4.2,-999.0,80,-99.99,,,0.00,Acu-Link.com,2013-04-01 17:42:00,
2013-04-01 12:57:00,76.8,70.5,29.90,NE,45,5.3,-999.0,81,-99.99,,,0.00,Acu-Link.com,2013-04-01 17:57:00,
2013-04-01 13:12:00,76.6,70.0,29.89,NE,45,3.7,-999.0,80,-99.99,,,0.00,Acu-Link.com,2013-04-01 18:12:00,
2013-04-01 13:27:00,77.5,70.1,29.88,ENE,67,5.8,-999.0,78,-99.99,,,0.00,Acu-Link.com,2013-04-01 18:27:00,
2013-04-01 13:42:00,77.7,70.3,29.87,East,90,8.9,-999.0,78,-99.99,,,0.00,Acu-Link.com,2013-04-01 18:42:00,
2013-04-01 13:57:00,79.9,70.9,29.87,North,0,5.3,-999.0,74,-99.99,,,0.00,Acu-Link.com,2013-04-01 18:57:00,
2013-04-01 14:13:00,78.6,70.4,29.86,NE,45,5.3,-999.0,76,-99.99,,,0.00,Acu-Link.com,2013-04-01 19:13:00,
2013-04-01 14:28:00,79.9,70.5,29.86,ENE,67,6.3,-999.0,73,-99.99,,,0.00,Acu-Link.com,2013-04-01 19:28:00,
2013-04-01 14:43:00,79.7,70.3,29.85,ENE,67,6.3,-999.0,73,-99.99,,,0.00,Acu-Link.com,2013-04-01 19:43:00,
2013-04-01 14:58:00,80.2,70.3,29.85,ESE,112,12.5,-999.0,72,-99.99,,,0.00,Acu-Link.com,2013-04-01 19:58:00,
2013-04-01 15:13:00,78.8,70.2,29.85,NE,45,6.8,-999.0,75,-99.99,,,0.00,Acu-Link.com,2013-04-01 20:13:00,
2013-04-01 15:28:00,77.9,70.1,29.84,NE,45,5.8,-999.0,77,-99.99,,,0.00,Acu-Link.com,2013-04-01 20:28:00,
2013-04-01 15:43:00,77.0,70.0,29.83,ENE,67,4.2,-999.0,79,-99.99,,,0.00,Acu-Link.com,2013-04-01 20:43:00,
2013-04-01 15:58:00,77.7,70.3,29.83,ENE,67,5.8,-999.0,78,-99.99,,,0.00,Acu-Link.com,2013-04-01 20:58:00,
2013-04-01 16:13:00,78.1,70.3,29.82,NE,45,7.3,-999.0,77,-99.99,,,0.00,Acu-Link.com,2013-04-01 21:13:00,
2013-04-01 16:29:00,75.9,69.6,29.81,NE,45,6.3,-999.0,81,-99.99,,,0.00,Acu-Link.com,2013-04-01 21:29:00,
2013-04-01 16:44:00,76.1,70.2,29.81,NE,45,7.3,-999.0,82,-99.99,,,0.00,Acu-Link.com,2013-04-01 21:44:00,
2013-04-01 16:59:00,76.1,69.8,29.81,NNE,22,7.3,-999.0,81,-99.99,,,0.00,Acu-Link.com,2013-04-01 21:59:00,
2013-04-01 17:14:00,75.2,69.7,29.80,NNE,22,7.3,-999.0,83,-99.99,,,0.00,Acu-Link.com,2013-04-01 22:14:00,
2013-04-01 17:29:00,74.7,69.5,29.80,ENE,67,4.7,-999.0,84,-99.99,,,0.00,Acu-Link.com,2013-04-01 22:29:00,
2013-04-01 17:44:00,75.0,69.5,29.80,East,90,10.9,-999.0,83,-99.99,,,0.00,Acu-Link.com,2013-04-01 22:44:00,
2013-04-01 17:59:00,74.8,69.6,29.81,NE,45,7.3,-999.0,84,-99.99,,,0.00,Acu-Link.com,2013-04-01 22:59:00,
2013-04-01 18:14:00,74.7,70.2,29.82,NE,45,8.3,-999.0,86,-99.99,,,0.00,Acu-Link.com,2013-04-01 23:14:00,
2013-04-01 18:29:00,74.1,69.6,29.81,ENE,67,6.3,-999.0,86,-99.99,,,0.00,Acu-Link.com,2013-04-01 23:29:00,
2013-04-01 18:45:00,73.6,69.1,29.80,ESE,112,7.3,-999.0,86,-99.99,,,0.00,Acu-Link.com,2013-04-01 23:45:00,
2013-04-01 19:00:00,73.0,69.2,29.80,East,90,9.9,-999.0,88,-99.99,,,0.00,Acu-Link.com,2013-04-02 00:00:00,
2013-04-01 19:15:00,72.7,69.3,29.79,ENE,67,6.3,-999.0,89,-99.99,,,0.00,Acu-Link.com,2013-04-02 00:15:00,
2013-04-01 19:30:00,72.3,69.2,29.80,ESE,112,7.3,-999.0,90,-99.99,,,0.00,Acu-Link.com,2013-04-02 00:30:00,
2013-04-01 19:45:00,71.8,69.0,29.81,NE,45,4.7,-999.0,91,-99.99,,,0.00,Acu-Link.com,2013-04-02 00:45:00,
2013-04-01 20:00:00,71.6,69.1,29.82,East,90,4.2,-999.0,92,-99.99,,,0.00,Acu-Link.com,2013-04-02 01:00:00,
2013-04-01 20:16:00,70.9,69.1,29.81,NE,45,6.8,-999.0,94,-99.99,,,0.00,Acu-Link.com,2013-04-02 01:16:00,
2013-04-01 20:31:00,70.5,69.0,29.81,ENE,67,4.2,-999.0,95,-99.99,,,0.00,Acu-Link.com,2013-04-02 01:31:00,
2013-04-01 21:16:00,70.5,69.3,29.82,East,90,4.7,-999.0,96,-99.99,,,0.00,Acu-Link.com,2013-04-02 02:16:00,
2013-04-01 21:31:00,70.5,69.3,29.82,NE,45,5.8,-999.0,96,-99.99,,,0.00,Acu-Link.com,2013-04-02 02:31:00,
2013-04-01 22:16:00,70.5,69.3,29.86,East,90,3.2,-999.0,96,-99.99,,,0.00,Acu-Link.com,2013-04-02 03:16:00,
2013-04-01 22:32:00,70.5,69.3,29.86,ENE,67,10.9,-999.0,96,-99.99,,,0.00,Acu-Link.com,2013-04-02 03:32:00,
2013-04-01 22:47:00,70.3,69.4,29.86,East,90,7.3,-999.0,97,-99.99,,,0.00,Acu-Link.com,2013-04-02 03:47:00,
2013-04-01 23:17:00,70.2,69.3,29.89,East,90,6.3,-999.0,97,-99.99,,,0.00,Acu-Link.com,2013-04-02 04:17:00,
2013-04-01 23:32:00,70.2,69.3,29.90,East,90,5.8,-999.0,97,-99.99,,,0.00,Acu-Link.com,2013-04-02 04:32:00,
2013-04-01 23:47:00,70.2,69.3,29.88,SE,135,4.2,-999.0,97,-99.99,,,0.00,Acu-Link.com,2013-04-02 04:47:00,